createdAt,value
2018-06-05T00:02:56.222Z,100824.00
2018-06-05T00:06:07.612Z,100818.00
2018-06-05T00:09:18.513Z,100818.00
2018-06-05T00:12:29.375Z,100816.00
2018-06-05T00:15:40.025Z,100816.00
2018-06-05T00:18:50.520Z,100821.00
2018-06-05T00:22:01.321Z,100818.00
2018-06-05T00:25:11.655Z,100817.00
2018-06-05T00:28:22.499Z,100810.00
2018-06-05T00:31:33.260Z,100811.00
2018-06-05T00:34:44.248Z,100814.00
2018-06-05T00:37:55.106Z,100810.00
2018-06-05T00:41:05.964Z,100809.00
2018-06-05T00:44:16.852Z,100813.00
2018-06-05T00:47:27.712Z,100813.00
2018-06-05T00:50:38.471Z,100813.00
2018-06-05T00:53:48.883Z,100812.00
2018-06-05T00:56:59.649Z,100809.00
2018-06-05T01:00:10.417Z,100802.00
2018-06-05T01:03:21.267Z,100795.00
2018-06-05T01:06:31.840Z,100789.00
2018-06-05T01:09:43.722Z,100787.00
2018-06-05T01:12:54.553Z,100792.00
2018-06-05T01:16:05.440Z,100787.00
2018-06-05T01:19:16.172Z,100786.00
2018-06-05T01:22:27.012Z,100782.00
2018-06-05T01:25:37.964Z,100787.00
2018-06-05T01:28:49.488Z,100796.00
2018-06-05T01:31:59.803Z,100799.00
2018-06-05T01:35:10.223Z,100797.00
2018-06-05T01:38:20.713Z,100796.00
2018-06-05T01:41:31.327Z,100793.00
2018-06-05T01:44:41.768Z,100793.00
2018-06-05T01:47:52.375Z,100792.00
2018-06-05T01:51:03.688Z,100789.00
2018-06-05T01:54:14.204Z,100795.00
2018-06-05T01:57:24.992Z,100793.00
2018-06-05T02:00:35.777Z,100792.00
2018-06-05T02:03:46.581Z,100796.00
2018-06-05T02:06:57.056Z,100793.00
2018-06-05T02:10:07.976Z,100798.00
2018-06-05T02:13:19.687Z,100801.00
2018-06-05T02:16:30.724Z,100802.00
2018-06-05T02:19:41.741Z,100799.00
2018-06-05T02:22:52.195Z,100796.00
2018-06-05T02:26:03.033Z,100797.00
2018-06-05T02:29:13.854Z,100797.00
2018-06-05T02:32:24.686Z,100801.00
2018-06-05T02:35:35.512Z,100796.00
2018-06-05T02:38:46.183Z,100794.00
2018-06-05T02:41:56.767Z,100796.00
2018-06-05T02:45:07.508Z,100793.00
2018-06-05T02:48:18.437Z,100790.00
2018-06-05T02:51:29.391Z,100793.00
2018-06-05T02:54:40.122Z,100798.00
2018-06-05T02:57:51.780Z,100796.00
2018-06-05T03:01:02.355Z,100800.00
2018-06-05T03:04:13.123Z,100800.00
2018-06-05T03:07:23.536Z,100802.00
2018-06-05T03:10:34.280Z,100804.00
2018-06-05T03:13:44.547Z,100803.00
2018-06-05T03:16:55.108Z,100810.00
2018-06-05T03:20:05.547Z,100806.00
2018-06-05T03:23:15.892Z,100806.00
2018-06-05T03:26:26.329Z,100805.00
2018-06-05T03:29:36.927Z,100808.00
2018-06-05T03:32:47.753Z,100809.00
2018-06-05T03:35:58.408Z,100815.00
2018-06-05T03:39:09.086Z,100814.00
2018-06-05T03:42:19.984Z,100814.00
2018-06-05T03:45:30.590Z,100815.00
2018-06-05T03:48:41.440Z,100811.00
2018-06-05T03:51:52.260Z,100813.00
2018-06-05T03:55:06.771Z,100819.00
2018-06-05T03:58:17.368Z,100824.00
2018-06-05T04:01:28.299Z,100826.00
2018-06-05T04:04:38.979Z,100824.00
2018-06-05T04:07:49.457Z,100819.00
2018-06-05T04:11:00.203Z,100818.00
2018-06-05T04:14:13.975Z,100825.00
2018-06-05T04:17:25.476Z,100836.00
2018-06-05T04:20:37.249Z,100830.00
2018-06-05T04:23:47.863Z,100830.00
2018-06-05T04:26:59.578Z,100833.00
2018-06-05T04:30:10.367Z,100833.00
2018-06-05T04:33:20.718Z,100834.00
2018-06-05T04:36:33.185Z,100840.00
2018-06-05T04:39:46.274Z,100839.00
2018-06-05T04:42:57.034Z,100839.00
2018-06-05T04:46:08.060Z,100843.00
2018-06-05T04:49:19.036Z,100846.00
2018-06-05T04:52:29.912Z,100841.00
2018-06-05T04:55:40.980Z,100849.00
2018-06-05T04:58:51.250Z,100854.00
2018-06-05T05:02:01.596Z,100857.00
2018-06-05T05:05:13.034Z,100858.00
2018-06-05T05:08:23.598Z,100854.00
2018-06-05T05:11:34.324Z,100854.00
2018-06-05T05:14:45.145Z,100855.00
2018-06-05T05:17:55.672Z,100860.00
2018-06-05T05:21:06.718Z,100862.00
2018-06-05T05:24:17.249Z,100862.00
2018-06-05T05:27:28.000Z,100864.00
2018-06-05T05:30:38.438Z,100859.00
2018-06-05T05:33:49.110Z,100859.00
2018-06-05T05:37:00.277Z,100858.00
2018-06-05T05:40:10.915Z,100862.00
2018-06-05T05:43:21.363Z,100864.00
2018-06-05T05:46:32.155Z,100867.00
2018-06-05T05:49:43.191Z,100866.00
2018-06-05T05:52:54.039Z,100868.00
2018-06-05T05:56:04.883Z,100869.00
2018-06-05T05:59:15.748Z,100881.00
2018-06-05T06:02:26.519Z,100878.00
2018-06-05T06:05:37.192Z,100877.00
2018-06-05T06:08:47.923Z,100877.00
2018-06-05T06:11:58.623Z,100887.00
2018-06-05T06:15:09.167Z,100888.00
2018-06-05T06:18:19.992Z,100887.00
2018-06-05T06:21:31.705Z,100889.00
2018-06-05T06:24:42.140Z,100890.00
2018-06-05T06:27:52.692Z,100883.00
2018-06-05T06:31:03.460Z,100887.00
2018-06-05T06:34:13.899Z,100881.00
2018-06-05T06:37:24.244Z,100889.00
2018-06-05T06:40:34.961Z,100878.00
2018-06-05T06:43:45.744Z,100890.00
2018-06-05T06:46:56.368Z,100893.00
2018-06-05T06:50:07.056Z,100890.00
2018-06-05T06:53:17.664Z,100892.00
2018-06-05T06:56:28.034Z,100888.00
2018-06-05T06:59:38.462Z,100892.00
2018-06-05T07:02:50.060Z,100899.00
2018-06-05T07:06:01.350Z,100904.00
2018-06-05T07:09:12.287Z,100900.00
2018-06-05T07:12:22.545Z,100902.00
2018-06-05T07:15:33.215Z,100901.00
2018-06-05T07:18:43.891Z,100907.00
2018-06-05T07:21:55.567Z,100903.00
2018-06-05T07:25:06.352Z,100904.00
2018-06-05T07:28:16.577Z,100902.00
2018-06-05T07:31:27.095Z,100909.00
2018-06-05T07:34:38.132Z,100910.00
2018-06-05T07:37:49.128Z,100911.00
2018-06-05T07:40:59.844Z,100917.00
2018-06-05T07:44:10.448Z,100916.00
2018-06-05T07:47:20.781Z,100923.00
2018-06-05T07:50:31.029Z,100920.00
2018-06-05T07:53:41.449Z,100918.00
2018-06-05T07:56:52.204Z,100915.00
2018-06-05T08:00:03.093Z,100914.00
2018-06-05T08:03:13.391Z,100917.00
2018-06-05T08:06:25.014Z,100915.00
2018-06-05T08:09:35.758Z,100912.00
2018-06-05T08:12:46.809Z,100911.00
2018-06-05T08:15:57.609Z,100911.00
2018-06-05T08:19:08.524Z,100918.00
2018-06-05T08:22:19.575Z,100918.00
2018-06-05T08:25:30.191Z,100923.00
2018-06-05T08:28:40.904Z,100915.00
2018-06-05T08:31:51.674Z,100913.00
2018-06-05T08:35:02.788Z,100913.00
2018-06-05T08:38:13.506Z,100920.00
2018-06-05T08:41:23.884Z,100920.00
2018-06-05T08:44:39.097Z,100915.00
2018-06-05T08:47:49.851Z,100915.00
2018-06-05T08:51:00.287Z,100919.00
2018-06-05T08:54:11.357Z,100916.00
2018-06-05T08:57:22.651Z,100921.00
2018-06-05T09:00:33.380Z,100922.00
2018-06-05T09:03:44.068Z,100924.00
2018-06-05T09:06:54.539Z,100925.00
2018-06-05T09:10:05.273Z,100923.00
2018-06-05T09:13:16.144Z,100925.00
2018-06-05T09:16:27.172Z,100922.00
2018-06-05T09:19:37.838Z,100923.00
2018-06-05T09:22:48.703Z,100919.00
2018-06-05T09:25:59.526Z,100922.00
2018-06-05T09:29:10.613Z,100921.00
2018-06-05T09:32:23.154Z,100919.00
2018-06-05T09:35:33.736Z,100921.00
2018-06-05T09:38:44.564Z,100920.00
2018-06-05T09:41:55.535Z,100924.00
2018-06-05T09:45:06.842Z,100924.00
2018-06-05T09:48:18.464Z,100923.00
2018-06-05T09:51:28.883Z,100926.00
2018-06-05T09:54:39.360Z,100928.00
2018-06-05T09:57:51.373Z,100927.00
2018-06-05T10:01:01.863Z,100926.00
2018-06-05T10:04:12.440Z,100934.00
2018-06-05T10:07:23.651Z,100934.00
2018-06-05T10:10:38.468Z,100935.00
2018-06-05T10:13:49.359Z,100928.00
2018-06-05T10:17:00.024Z,100928.00
2018-06-05T10:20:10.883Z,100931.00
2018-06-05T10:23:21.164Z,100930.00
2018-06-05T10:26:32.014Z,100929.00
2018-06-05T10:29:42.780Z,100925.00
2018-06-05T10:32:53.474Z,100922.00
2018-06-05T10:36:03.869Z,100918.00
2018-06-05T10:39:16.107Z,100917.00
2018-06-05T10:42:26.999Z,100914.00
2018-06-05T10:45:38.108Z,100912.00
2018-06-05T10:48:48.944Z,100914.00
2018-06-05T10:51:59.658Z,100908.00
2018-06-05T10:55:10.275Z,100899.00
2018-06-05T10:58:21.076Z,100905.00
2018-06-05T11:01:31.693Z,100899.00
2018-06-05T11:04:42.412Z,100906.00
2018-06-05T11:07:53.048Z,100902.00
2018-06-05T11:11:04.015Z,100903.00
2018-06-05T11:14:14.462Z,100902.00
2018-06-05T11:17:26.278Z,100902.00
2018-06-05T11:20:37.785Z,100901.00
2018-06-05T11:23:48.436Z,100906.00
2018-06-05T11:26:58.998Z,100909.00
2018-06-05T11:30:09.632Z,100898.00
2018-06-05T11:33:20.384Z,100903.00
2018-06-05T11:36:31.145Z,100903.00
2018-06-05T11:39:41.950Z,100902.00
2018-06-05T11:42:52.435Z,100904.00
2018-06-05T11:46:03.198Z,100908.00
2018-06-05T11:49:14.061Z,100900.00
2018-06-05T11:52:24.853Z,100902.00
2018-06-05T11:55:35.247Z,100898.00
2018-06-05T11:58:46.902Z,100892.00
2018-06-05T12:01:57.765Z,100886.00
2018-06-05T12:05:08.197Z,100886.00
2018-06-05T12:08:18.963Z,100888.00
2018-06-05T12:11:29.268Z,100889.00
2018-06-05T12:14:39.986Z,100886.00
2018-06-05T12:17:51.044Z,100885.00
2018-06-05T12:21:01.842Z,100885.00
2018-06-05T12:24:12.852Z,100880.00
2018-06-05T12:27:23.632Z,100875.00
2018-06-05T12:30:34.427Z,100878.00
2018-06-05T12:33:45.188Z,100879.00
2018-06-05T12:36:56.102Z,100880.00
2018-06-05T12:40:06.848Z,100873.00
2018-06-05T12:43:17.668Z,100872.00
2018-06-05T12:46:28.103Z,100871.00
2018-06-05T12:49:38.887Z,100869.00
2018-06-05T12:52:49.303Z,100865.00
2018-06-05T12:55:59.549Z,100861.00
2018-06-05T12:59:10.042Z,100865.00
2018-06-05T13:02:21.303Z,100855.00
2018-06-05T13:05:31.769Z,100849.00
2018-06-05T13:08:42.623Z,100854.00
2018-06-05T13:11:55.263Z,100851.00
2018-06-05T13:15:05.615Z,100854.00
2018-06-05T13:18:16.304Z,100843.00
2018-06-05T13:21:26.731Z,100847.00
2018-06-05T13:24:37.511Z,100855.00
2018-06-05T13:27:48.187Z,100850.00
2018-06-05T13:30:58.983Z,100851.00
2018-06-05T13:34:09.727Z,100844.00
2018-06-05T13:37:20.790Z,100846.00
2018-06-05T13:40:31.040Z,100844.00
2018-06-05T13:43:41.704Z,100848.00
2018-06-05T13:46:52.579Z,100846.00
2018-06-05T13:50:03.342Z,100848.00
2018-06-05T13:53:13.637Z,100846.00
2018-06-05T13:56:24.376Z,100844.00
2018-06-05T13:59:35.176Z,100842.00
2018-06-05T14:02:45.503Z,100839.00
2018-06-05T14:05:55.940Z,100842.00
2018-06-05T14:09:08.321Z,100832.00
2018-06-05T14:12:18.993Z,100831.00
2018-06-05T14:15:29.213Z,100825.00
2018-06-05T14:18:39.966Z,100825.00
2018-06-05T14:21:50.607Z,100825.00
2018-06-05T14:25:01.209Z,100822.00
2018-06-05T14:28:12.149Z,100812.00
2018-06-05T14:31:22.835Z,100799.00
2018-06-05T14:34:34.148Z,100788.00
2018-06-05T14:37:44.848Z,100783.00
2018-06-05T14:40:55.875Z,100781.00
2018-06-05T14:44:06.545Z,100775.00
2018-06-05T14:47:17.249Z,100768.00
2018-06-05T14:50:28.311Z,100785.00
2018-06-05T14:53:38.956Z,100771.00
2018-06-05T14:56:49.674Z,100764.00
2018-06-05T15:00:00.939Z,100769.00
2018-06-05T15:03:12.159Z,100765.00
2018-06-05T15:06:22.684Z,100770.00
2018-06-05T15:09:33.489Z,100773.00
2018-06-05T15:12:45.089Z,100777.00
2018-06-05T15:15:55.849Z,100768.00
2018-06-05T15:19:06.596Z,100763.00
2018-06-05T15:22:17.292Z,100765.00
2018-06-05T15:25:28.221Z,100766.00
2018-06-05T15:28:39.126Z,100764.00
2018-06-05T15:31:50.219Z,100757.00
2018-06-05T15:35:00.627Z,100754.00
2018-06-05T15:38:11.260Z,100756.00
2018-06-05T15:41:22.060Z,100758.00
2018-06-05T15:44:34.166Z,100744.00
2018-06-05T15:47:44.928Z,100751.00
2018-06-05T15:50:55.769Z,100752.00
2018-06-05T15:54:09.373Z,100746.00
2018-06-05T15:57:21.231Z,100743.00
2018-06-05T16:00:31.923Z,100743.00
2018-06-05T16:03:45.286Z,100749.00
2018-06-05T16:06:57.063Z,100741.00
2018-06-05T16:10:08.675Z,100748.00
2018-06-05T16:13:26.191Z,100743.00
2018-06-05T16:16:43.472Z,100733.00
2018-06-05T16:19:54.897Z,100735.00
2018-06-05T16:23:05.668Z,100744.00
2018-06-05T16:26:17.824Z,100732.00
2018-06-05T16:29:29.522Z,100725.00
2018-06-05T16:32:41.327Z,100725.00
2018-06-05T16:35:52.203Z,100728.00
2018-06-05T16:39:06.870Z,100713.00
2018-06-05T16:42:18.366Z,100719.00
2018-06-05T16:45:29.168Z,100711.00
2018-06-05T16:48:40.934Z,100706.00
2018-06-05T16:51:52.373Z,100710.00
2018-06-05T16:55:04.137Z,100718.00
2018-06-05T16:58:15.356Z,100716.00
2018-06-05T17:01:26.260Z,100702.00
2018-06-05T17:04:37.669Z,100708.00
2018-06-05T17:07:49.537Z,100704.00
2018-06-05T17:11:01.019Z,100702.00
2018-06-05T17:14:12.656Z,100712.00
2018-06-05T17:17:23.454Z,100699.00
2018-06-05T17:20:34.085Z,100706.00
2018-06-05T17:23:44.713Z,100705.00
2018-06-05T17:26:55.768Z,100706.00
2018-06-05T17:30:08.908Z,100707.00
2018-06-05T17:33:20.346Z,100698.00
2018-06-05T17:36:32.389Z,100699.00
2018-06-05T17:39:47.348Z,100697.00
2018-06-05T17:42:58.382Z,100700.00
2018-06-05T17:46:10.026Z,100700.00
2018-06-05T17:49:20.726Z,100705.00
2018-06-05T17:52:31.621Z,100704.00
2018-06-05T17:55:42.204Z,100701.00
2018-06-05T17:58:52.876Z,100705.00
2018-06-05T18:02:03.744Z,100703.00
2018-06-05T18:05:14.196Z,100703.00
2018-06-05T18:08:24.918Z,100705.00
2018-06-05T18:11:36.062Z,100707.00
2018-06-05T18:14:46.945Z,100712.00
2018-06-05T18:17:58.594Z,100708.00
2018-06-05T18:21:09.669Z,100711.00
2018-06-05T18:24:20.586Z,100705.00
2018-06-05T18:27:31.046Z,100710.00
2018-06-05T18:30:42.072Z,100709.00
2018-06-05T18:33:52.932Z,100712.00
2018-06-05T18:37:05.518Z,100710.00
2018-06-05T18:40:16.518Z,100711.00
2018-06-05T18:43:27.523Z,100714.00
2018-06-05T18:46:38.561Z,100722.00
2018-06-05T18:49:50.102Z,100728.00
2018-06-05T18:53:00.690Z,100743.00
2018-06-05T18:56:10.921Z,100746.00
2018-06-05T18:59:22.260Z,100755.00
2018-06-05T19:02:33.157Z,100756.00
2018-06-05T19:05:43.657Z,100762.00
2018-06-05T19:08:55.368Z,100766.00
2018-06-05T19:12:06.330Z,100767.00
2018-06-05T19:15:17.569Z,100770.00
2018-06-05T19:18:31.164Z,100778.00
2018-06-05T19:21:45.001Z,100781.00
2018-06-05T19:24:56.176Z,100786.00
2018-06-05T19:28:09.633Z,100786.00
2018-06-05T19:31:21.023Z,100790.00
2018-06-05T19:34:31.641Z,100790.00
2018-06-05T19:37:44.352Z,100789.00
2018-06-05T19:40:57.239Z,100800.00
2018-06-05T19:44:09.081Z,100798.00
2018-06-05T19:47:19.970Z,100801.00
2018-06-05T19:50:30.731Z,100802.00
2018-06-05T19:53:42.517Z,100807.00
2018-06-05T19:56:53.785Z,100815.00
2018-06-05T20:00:06.716Z,100820.00
2018-06-05T20:03:17.508Z,100822.00
2018-06-05T20:06:32.682Z,100829.00
2018-06-05T20:09:44.678Z,100824.00
2018-06-05T20:12:56.768Z,100823.00
2018-06-05T20:16:08.150Z,100837.00
2018-06-05T20:19:20.375Z,100840.00
2018-06-05T20:22:31.704Z,100843.00
2018-06-05T20:25:42.722Z,100844.00
2018-06-05T20:28:59.337Z,100847.00
2018-06-05T20:32:10.022Z,100852.00
2018-06-05T20:35:21.004Z,100854.00
2018-06-05T20:38:31.753Z,100853.00
2018-06-05T20:41:42.853Z,100853.00
2018-06-05T20:44:53.770Z,100856.00
2018-06-05T20:48:05.979Z,100862.00
2018-06-05T20:51:16.472Z,100855.00
2018-06-05T20:54:27.015Z,100862.00
2018-06-05T20:57:38.952Z,100857.00
2018-06-05T21:00:49.833Z,100852.00
2018-06-05T21:04:00.580Z,100855.00
2018-06-05T21:07:11.176Z,100857.00
2018-06-05T21:10:21.583Z,100861.00
2018-06-05T21:13:32.368Z,100866.00
2018-06-05T21:16:43.343Z,100860.00
2018-06-05T21:19:53.695Z,100864.00
2018-06-05T21:23:04.589Z,100872.00
2018-06-05T21:26:15.443Z,100875.00
2018-06-05T21:29:26.356Z,100878.00
2018-06-05T21:32:37.237Z,100865.00
2018-06-05T21:35:48.073Z,100865.00
2018-06-05T21:38:58.762Z,100866.00
2018-06-05T21:42:09.202Z,100873.00
2018-06-05T21:45:19.814Z,100879.00
2018-06-05T21:48:30.504Z,100879.00
2018-06-05T21:51:41.663Z,100882.00
2018-06-05T21:54:52.251Z,100884.00
2018-06-05T21:58:02.832Z,100891.00
2018-06-05T22:01:13.724Z,100896.00
2018-06-05T22:04:25.200Z,100895.00
2018-06-05T22:07:36.361Z,100891.00
2018-06-05T22:10:46.887Z,100895.00
2018-06-05T22:13:58.284Z,100895.00
2018-06-05T22:17:09.237Z,100898.00
2018-06-05T22:20:20.530Z,100896.00
2018-06-05T22:23:31.282Z,100893.00
2018-06-05T22:26:42.092Z,100889.00
2018-06-05T22:29:53.271Z,100893.00
2018-06-05T22:33:03.925Z,100894.00
2018-06-05T22:36:14.930Z,100897.00
2018-06-05T22:39:25.444Z,100887.00
2018-06-05T22:42:36.383Z,100886.00
2018-06-05T22:45:47.327Z,100885.00
2018-06-05T22:48:58.205Z,100880.00
2018-06-05T22:52:09.117Z,100876.00
2018-06-05T22:55:19.824Z,100872.00
2018-06-05T22:58:34.331Z,100870.00
2018-06-05T23:01:44.692Z,100866.00
2018-06-05T23:04:55.347Z,100867.00
2018-06-05T23:08:06.337Z,100864.00
2018-06-05T23:11:16.863Z,100870.00
2018-06-05T23:14:27.483Z,100868.00
2018-06-05T23:17:38.176Z,100867.00
2018-06-05T23:20:48.886Z,100871.00
2018-06-05T23:23:59.829Z,100873.00
2018-06-05T23:27:11.015Z,100873.00
2018-06-05T23:30:21.901Z,100872.00
2018-06-05T23:33:32.714Z,100874.00
2018-06-05T23:36:43.472Z,100880.00
2018-06-05T23:39:54.216Z,100876.00
2018-06-05T23:43:05.041Z,100874.00
2018-06-05T23:46:15.832Z,100879.00
2018-06-05T23:49:26.146Z,100879.00
2018-06-05T23:52:36.593Z,100883.00
2018-06-05T23:55:47.437Z,100879.00
2018-06-05T23:58:58.536Z,100879.00
